Time;durP1;ratioP1;P1;durP2;ratioP2;P2;SDS_P1;SDS_P2;PMS_P1;PMS_P2;Temp;Humidity;BMP_temperature;BMP_pressure;BME280_temperature;BME280_humidity;BME280_pressure;Samples;Min_cycle;Max_cycle;Signal;HPM_P1;HPM_P2
2022/01/01 00:01:02;;;;;;;379.10;110.40;;;12.70;99.90;;;;;;5113774;28;20435;-71
2022/01/01 00:03:30;;;;;;;477.53;98.67;;;12.70;99.90;;;;;;5113587;28;20440;-71
2022/01/01 00:05:58;;;;;;;438.93;110.07;;;12.70;99.90;;;;;;5113813;28;20442;-71
2022/01/01 00:08:26;;;;;;;361.63;88.83;;;12.70;99.90;;;;;;5114051;28;20542;-70
2022/01/01 00:10:56;;;;;;;425.13;117.47;;;12.70;99.90;;;;;;5112197;28;20448;-71
2022/01/01 00:13:44;;;;;;;426.90;125.17;;;12.70;99.90;;;;;;5113816;28;20435;-70
2022/01/01 00:16:12;;;;;;;399.40;93.60;;;12.70;99.90;;;;;;5116363;28;20454;-70
2022/01/01 00:18:41;;;;;;;370.23;117.50;;;12.70;99.90;;;;;;5117828;28;20505;-70
2022/01/01 00:21:09;;;;;;;413.33;109.03;;;12.70;99.90;;;;;;5116170;28;20447;-71
2022/01/01 00:23:37;;;;;;;341.20;91.90;;;12.70;99.90;;;;;;5116220;28;20438;-71
2022/01/01 00:26:06;;;;;;;414.33;120.73;;;12.70;99.90;;;;;;5117905;28;20443;-71
2022/01/01 00:28:34;;;;;;;51.70;45.37;;;12.70;99.90;;;;;;5117634;28;20443;-70
2022/01/01 00:31:02;;;;;;;417.60;83.37;;;12.70;99.90;;;;;;5117506;28;20438;-70
2022/01/01 00:33:31;;;;;;;374.53;88.43;;;12.70;99.90;;;;;;5117702;28;20431;-70
2022/01/01 00:35:59;;;;;;;374.37;109.57;;;12.70;99.90;;;;;;5117541;28;20438;-71
2022/01/01 00:38:27;;;;;;;377.53;94.30;;;12.70;99.90;;;;;;5117211;28;20495;-70
2022/01/01 00:40:55;;;;;;;455.87;104.67;;;12.70;99.90;;;;;;5117417;28;20427;-71
2022/01/01 00:43:25;;;;;;;445.80;104.03;;;12.70;99.90;;;;;;5117070;27;20442;-71
2022/01/01 00:45:53;;;;;;;421.00;84.93;;;12.70;99.90;;;;;;5116273;28;20465;-70
2022/01/01 00:48:21;;;;;;;416.07;101.00;;;12.70;99.90;;;;;;5116921;28;20435;-71
2022/01/01 00:50:49;;;;;;;553.53;100.83;;;12.70;99.90;;;;;;5117151;28;20845;-71
2022/01/01 00:53:17;;;;;;;385.07;111.80;;;12.70;99.90;;;;;;5115461;28;20471;-71
2022/01/01 00:55:45;;;;;;;457.67;92.20;;;12.60;99.90;;;;;;5115542;28;20542;-71
2022/01/01 00:58:13;;;;;;;425.60;103.03;;;12.70;99.90;;;;;;5115800;28;20442;-70
2022/01/01 01:00:43;;;;;;;412.07;98.87;;;12.70;99.90;;;;;;5115444;28;20440;-71
2022/01/01 01:03:11;;;;;;;315.33;91.03;;;12.60;99.90;;;;;;5115421;28;20485;-71
2022/01/01 01:05:40;;;;;;;480.33;113.17;;;12.70;99.90;;;;;;5117180;28;20443;-71
2022/01/01 01:08:10;;;;;;;330.47;80.53;;;12.70;99.90;;;;;;5115273;28;20965;-71
2022/01/01 01:10:39;;;;;;;379.60;97.20;;;12.70;99.90;;;;;;5117119;28;20427;-70
2022/01/01 01:13:08;;;;;;;381.97;96.40;;;12.70;99.90;;;;;;5116348;28;20463;-71
2022/01/01 01:15:36;;;;;;;399.40;94.83;;;12.70;99.90;;;;;;5115474;28;20443;-72
2022/01/01 01:18:06;;;;;;;369.60;97.43;;;12.70;99.90;;;;;;5116936;28;20449;-71
2022/01/01 01:20:34;;;;;;;332.63;90.23;;;12.60;99.90;;;;;;5116354;28;20435;-71
2022/01/01 01:23:02;;;;;;;440.80;123.40;;;12.60;99.90;;;;;;5116235;28;20517;-71
2022/01/01 01:25:38;;;;;;;434.93;88.30;;;12.70;99.90;;;;;;5115985;28;20928;-71
2022/01/01 01:28:07;;;;;;;512.93;104.50;;;12.70;99.90;;;;;;5115520;28;20919;-71
2022/01/01 01:30:36;;;;;;;422.80;104.17;;;12.60;99.90;;;;;;5116567;28;20836;-72
2022/01/01 01:33:07;;;;;;;548.13;112.87;;;12.60;99.90;;;;;;5114675;28;20471;-72
2022/01/01 01:35:35;;;;;;;390.63;99.63;;;12.60;99.90;;;;;;5116401;28;20439;-71
2022/01/01 01:38:04;;;;;;;398.23;101.53;;;12.60;99.90;;;;;;5115908;28;20781;-71
2022/01/01 01:40:32;;;;;;;377.33;115.47;;;12.60;99.90;;;;;;5116065;28;20534;-71
2022/01/01 01:43:07;;;;;;;452.90;104.57;;;12.60;99.90;;;;;;5116148;27;20458;-71
2022/01/01 01:45:35;;;;;;;407.53;99.63;;;12.60;99.90;;;;;;5116228;27;20454;-71
2022/01/01 01:48:06;;;;;;;479.77;99.27;;;12.60;99.90;;;;;;5115824;28;20959;-71
2022/01/01 01:50:37;;;;;;;437.10;74.37;;;12.60;99.90;;;;;;5116113;28;20418;-71
2022/01/01 01:53:06;;;;;;;414.63;108.23;;;12.60;99.90;;;;;;5115663;28;20564;-71
2022/01/01 01:55:35;;;;;;;394.70;84.70;;;12.60;99.90;;;;;;5115650;28;20431;-71
2022/01/01 01:58:03;;;;;;;417.33;109.00;;;12.60;99.90;;;;;;5114553;28;20538;-71
2022/01/01 02:00:56;;;;;;;490.77;114.53;;;12.60;99.90;;;;;;5115841;28;20434;-71
2022/01/01 02:03:26;;;;;;;456.47;100.53;;;12.60;99.90;;;;;;5115759;28;20501;-71
2022/01/01 02:05:55;;;;;;;383.43;82.57;;;12.60;99.90;;;;;;5115475;28;20832;-71
2022/01/01 02:08:24;;;;;;;420.43;105.73;;;12.60;99.90;;;;;;5115781;28;20428;-72
2022/01/01 02:10:53;;;;;;;451.17;103.40;;;12.60;99.90;;;;;;5115676;28;20520;-71
2022/01/01 02:13:26;;;;;;;419.57;107.17;;;12.60;99.90;;;;;;5115442;28;20478;-71
2022/01/01 02:16:25;;;;;;;427.83;109.07;;;12.60;99.90;;;;;;5114046;28;20458;-71
2022/01/01 02:18:56;;;;;;;582.60;146.23;;;12.60;99.90;;;;;;5113970;28;20439;-71
2022/01/01 02:21:29;;;;;;;398.63;96.83;;;12.60;99.90;;;;;;5114180;28;20455;-71
2022/01/01 02:24:00;;;;;;;454.63;128.47;;;12.60;99.90;;;;;;5115183;28;20432;-70
2022/01/01 02:26:31;;;;;;;109.87;52.73;;;12.60;99.90;;;;;;5113960;28;20480;-71
2022/01/01 02:29:00;;;;;;;390.37;109.10;;;12.60;99.90;;;;;;5115375;28;20430;-71
2022/01/01 02:31:28;;;;;;;415.93;108.20;;;12.60;99.90;;;;;;5115457;28;20453;-71
2022/01/01 02:34:02;;;;;;;469.13;111.90;;;12.60;99.90;;;;;;5113700;28;20512;-71
2022/01/01 02:36:33;;;;;;;193.57;55.53;;;12.60;99.90;;;;;;5113713;28;20454;-71
2022/01/01 02:39:01;;;;;;;376.27;119.83;;;12.60;99.90;;;;;;5114173;28;20420;-70
2022/01/01 02:41:30;;;;;;;378.03;106.37;;;12.60;99.90;;;;;;5114824;28;20451;-71
2022/01/01 02:43:58;;;;;;;80.03;50.43;;;12.60;99.90;;;;;;5115640;28;20442;-71
2022/01/01 02:46:26;;;;;;;462.83;123.97;;;12.50;99.90;;;;;;5113757;28;20524;-70
2022/01/01 02:48:54;;;;;;;145.77;64.20;;;12.50;99.90;;;;;;5114801;28;20432;-71
2022/01/01 02:51:22;;;;;;;160.30;44.17;;;12.50;99.90;;;;;;5114671;28;20460;-70
2022/01/01 02:53:52;;;;;;;497.60;121.70;;;12.50;99.90;;;;;;5113445;28;20983;-70
2022/01/01 02:56:20;;;;;;;458.17;127.17;;;12.50;99.90;;;;;;5114791;28;20438;-70
2022/01/01 02:58:48;;;;;;;589.17;98.90;;;12.50;99.90;;;;;;5114899;28;20518;-70
2022/01/01 03:01:16;;;;;;;488.43;117.37;;;12.50;99.90;;;;;;5115664;28;20467;-70
2022/01/01 03:03:46;;;;;;;444.10;132.73;;;12.50;99.90;;;;;;5115528;27;20492;-70
2022/01/01 03:06:19;;;;;;;408.33;91.40;;;12.50;99.90;;;;;;5113996;28;20436;-71
2022/01/01 03:09:06;;;;;;;476.63;103.53;;;12.50;99.90;;;;;;5115125;28;20450;-70
2022/01/01 03:11:34;;;;;;;481.07;104.90;;;12.50;99.90;;;;;;5114227;28;20826;-70
2022/01/01 03:14:02;;;;;;;481.80;133.43;;;12.50;99.90;;;;;;5114370;28;20467;-70
2022/01/01 03:16:31;;;;;;;410.13;101.90;;;12.50;99.90;;;;;;5114353;28;20435;-71
2022/01/01 03:18:59;;;;;;;521.53;108.23;;;12.50;99.90;;;;;;5114236;28;20435;-71
2022/01/01 03:21:27;;;;;;;497.60;125.73;;;12.50;99.90;;;;;;5114244;28;20458;-71
2022/01/01 03:23:55;;;;;;;127.23;59.07;;;12.50;99.90;;;;;;5112812;28;20443;-71
2022/01/01 03:26:25;;;;;;;144.73;57.20;;;12.50;99.90;;;;;;5114268;28;20439;-71
2022/01/01 03:28:53;;;;;;;429.30;113.80;;;12.50;99.90;;;;;;5113959;28;20935;-70
2022/01/01 03:31:23;;;;;;;465.03;109.33;;;12.50;99.90;;;;;;5113815;28;20431;-70
2022/01/01 03:33:51;;;;;;;69.20;47.50;;;12.50;99.90;;;;;;5114136;28;20471;-70
2022/01/01 03:36:19;;;;;;;421.33;115.40;;;12.50;99.90;;;;;;5113959;28;20458;-71
2022/01/01 03:38:47;;;;;;;247.67;81.00;;;12.50;99.90;;;;;;5114221;28;20430;-71
2022/01/01 03:41:15;;;;;;;391.90;113.13;;;12.50;99.90;;;;;;5113782;28;20530;-71
2022/01/01 03:43:45;;;;;;;388.87;129.43;;;12.50;99.90;;;;;;5112542;28;20439;-71
2022/01/01 03:46:13;;;;;;;443.77;117.87;;;12.50;99.90;;;;;;5112504;28;20461;-71
2022/01/01 03:48:41;;;;;;;444.97;110.03;;;12.50;99.90;;;;;;5113895;28;20861;-71
2022/01/01 03:51:09;;;;;;;462.67;122.43;;;12.50;99.90;;;;;;5114092;28;20486;-71
2022/01/01 03:53:37;;;;;;;467.30;122.07;;;12.50;99.90;;;;;;5112438;28;20500;-71
2022/01/01 03:56:07;;;;;;;452.67;110.90;;;12.50;99.90;;;;;;5114075;28;20442;-71
2022/01/01 03:58:35;;;;;;;526.83;150.47;;;12.50;99.90;;;;;;5112403;28;20447;-70
2022/01/01 04:01:05;;;;;;;416.23;111.10;;;12.50;99.90;;;;;;5113573;28;20493;-71
2022/01/01 04:03:33;;;;;;;429.87;130.00;;;12.50;99.90;;;;;;5113873;28;20504;-70
2022/01/01 04:06:01;;;;;;;385.20;95.50;;;12.40;99.90;;;;;;5113581;28;20428;-70
2022/01/01 04:08:30;;;;;;;519.00;135.20;;;12.40;99.90;;;;;;5113639;28;20440;-70
2022/01/01 04:10:58;;;;;;;433.63;115.83;;;12.50;99.90;;;;;;5113668;28;20454;-71
2022/01/01 04:13:27;;;;;;;358.57;101.50;;;12.40;99.90;;;;;;5112359;28;20474;-71
2022/01/01 04:15:55;;;;;;;484.10;102.87;;;12.40;99.90;;;;;;5113497;28;20875;-71
2022/01/01 04:18:37;;;;;;;415.00;103.33;;;12.40;99.90;;;;;;5113758;28;20460;-71
2022/01/01 04:21:07;;;;;;;145.07;66.90;;;12.40;99.90;;;;;;5112445;28;20860;-70
2022/01/01 04:23:35;;;;;;;529.73;130.17;;;12.40;99.90;;;;;;5113439;28;20435;-71
2022/01/01 04:26:05;;;;;;;299.63;84.40;;;12.40;99.90;;;;;;5114194;28;20431;-71
2022/01/01 04:28:33;;;;;;;413.37;129.13;;;12.40;99.90;;;;;;5112166;28;20928;-71
2022/01/01 04:31:01;;;;;;;154.63;58.40;;;12.40;99.90;;;;;;5113630;28;20439;-71
2022/01/01 04:33:31;;;;;;;574.67;136.63;;;12.40;99.90;;;;;;5113539;28;20439;-71
2022/01/01 04:35:59;;;;;;;421.27;122.93;;;12.40;99.90;;;;;;5111855;28;20447;-71
2022/01/01 04:38:37;;;;;;;403.43;109.57;;;12.40;99.90;;;;;;5113361;28;20420;-71
2022/01/01 04:41:06;;;;;;;454.10;120.50;;;12.40;99.90;;;;;;5113803;28;20443;-70
2022/01/01 04:43:34;;;;;;;96.60;60.57;;;12.40;99.90;;;;;;5113465;28;20454;-70
2022/01/01 04:46:02;;;;;;;452.53;122.87;;;12.40;99.90;;;;;;5111917;28;20444;-70
2022/01/01 04:48:32;;;;;;;418.43;108.23;;;12.40;99.90;;;;;;5113475;28;20901;-71
2022/01/01 04:51:00;;;;;;;527.47;145.17;;;12.40;99.90;;;;;;5113135;28;20439;-71
2022/01/01 04:53:28;;;;;;;499.57;135.20;;;12.40;99.90;;;;;;5112060;28;20443;-71
2022/01/01 04:55:56;;;;;;;434.60;134.83;;;12.40;99.90;;;;;;5113417;28;20561;-71
2022/01/01 04:58:24;;;;;;;401.40;115.13;;;12.40;99.90;;;;;;5111900;28;20836;-71
2022/01/01 05:00:52;;;;;;;446.70;141.03;;;12.40;99.90;;;;;;5112175;28;20439;-71
2022/01/01 05:03:21;;;;;;;398.63;111.77;;;12.40;99.90;;;;;;5116599;28;20817;-71
2022/01/01 05:05:50;;;;;;;187.77;69.13;;;12.40;99.90;;;;;;5116863;28;20431;-71
2022/01/01 05:08:18;;;;;;;426.57;113.23;;;12.40;99.90;;;;;;5116707;28;20974;-72
2022/01/01 05:10:46;;;;;;;486.23;121.47;;;12.30;99.90;;;;;;5116706;27;20438;-72
2022/01/01 05:13:15;;;;;;;497.60;139.33;;;12.40;99.90;;;;;;5115214;28;20562;-72
2022/01/01 05:15:43;;;;;;;651.80;137.37;;;12.40;99.90;;;;;;5116692;28;20474;-71
2022/01/01 05:18:11;;;;;;;122.40;71.00;;;12.40;99.90;;;;;;5115237;28;20963;-71
2022/01/01 05:20:39;;;;;;;443.03;113.70;;;12.40;99.90;;;;;;5117021;28;20518;-71
2022/01/01 05:23:08;;;;;;;456.87;137.40;;;12.40;99.90;;;;;;5116298;28;20458;-71
2022/01/01 05:25:36;;;;;;;522.13;153.53;;;12.40;99.90;;;;;;5115052;28;20440;-71
2022/01/01 05:28:05;;;;;;;465.60;148.13;;;12.30;99.90;;;;;;5116836;28;20432;-71
2022/01/01 05:30:33;;;;;;;449.77;140.50;;;12.40;99.90;;;;;;5116214;28;20434;-71
2022/01/01 05:33:02;;;;;;;326.23;95.50;;;12.40;99.90;;;;;;5116103;28;20887;-71
2022/01/01 05:35:30;;;;;;;557.07;152.23;;;12.30;99.90;;;;;;5116287;28;20844;-71
2022/01/01 05:37:58;;;;;;;259.13;105.73;;;12.40;99.90;;;;;;5117043;28;20443;-71
2022/01/01 05:40:48;;;;;;;534.57;146.93;;;12.40;99.90;;;;;;5116383;28;20438;-71
2022/01/01 05:43:16;;;;;;;514.47;139.83;;;12.40;99.90;;;;;;5114600;28;21067;-71
2022/01/01 05:45:44;;;;;;;455.97;129.37;;;12.40;99.90;;;;;;5115151;28;20776;-71
2022/01/01 05:48:12;;;;;;;565.30;134.37;;;12.40;99.90;;;;;;5114597;28;20463;-71
2022/01/01 05:50:40;;;;;;;418.13;125.70;;;12.40;99.90;;;;;;5115942;28;20439;-71
2022/01/01 05:53:09;;;;;;;193.50;76.10;;;12.40;99.90;;;;;;5115766;28;20820;-71
2022/01/01 05:55:37;;;;;;;427.67;130.43;;;12.30;99.90;;;;;;5115663;28;20474;-71
2022/01/01 05:58:06;;;;;;;318.20;101.17;;;12.30;99.90;;;;;;5116310;28;20454;-71
2022/01/01 06:00:35;;;;;;;399.17;112.03;;;12.40;99.90;;;;;;5115970;28;20524;-72
2022/01/01 06:03:04;;;;;;;426.40;126.50;;;12.40;99.90;;;;;;5114379;28;21044;-71
2022/01/01 06:05:32;;;;;;;496.67;107.37;;;12.40;99.90;;;;;;5115575;28;20436;-72
2022/01/01 06:08:01;;;;;;;357.33;90.67;;;12.40;99.90;;;;;;5114273;28;20899;-72
2022/01/01 06:10:29;;;;;;;150.27;79.60;;;12.40;99.90;;;;;;5116119;28;20434;-72
2022/01/01 06:12:57;;;;;;;420.57;124.17;;;12.40;99.90;;;;;;5114172;28;20475;-72
2022/01/01 06:15:27;;;;;;;472.00;107.60;;;12.30;99.90;;;;;;5115721;28;20475;-70
2022/01/01 06:17:55;;;;;;;323.70;113.13;;;12.40;99.90;;;;;;5115487;28;20522;-71
2022/01/01 06:20:23;;;;;;;569.50;154.67;;;12.40;99.90;;;;;;5114181;28;20444;-71
2022/01/01 06:23:03;;;;;;;430.07;109.47;;;12.40;99.90;;;;;;5115339;28;20455;-71
2022/01/01 06:25:31;;;;;;;605.97;129.53;;;12.40;99.90;;;;;;5115611;28;20450;-70
2022/01/01 06:27:59;;;;;;;403.87;112.80;;;12.40;99.90;;;;;;5115834;28;20436;-71
2022/01/01 06:30:33;;;;;;;459.83;125.20;;;12.30;99.90;;;;;;5114504;28;20447;-71
2022/01/01 06:33:03;;;;;;;493.70;129.97;;;12.40;99.90;;;;;;5113965;28;20558;-71
2022/01/01 06:35:31;;;;;;;493.87;106.77;;;12.40;99.90;;;;;;5113684;28;20463;-71
2022/01/01 06:37:59;;;;;;;458.87;119.43;;;12.40;99.90;;;;;;5115063;28;20438;-71
2022/01/01 06:40:27;;;;;;;351.47;99.83;;;12.40;99.90;;;;;;5115193;28;20436;-71
2022/01/01 06:42:55;;;;;;;446.17;128.13;;;12.40;99.90;;;;;;5115092;28;20466;-71
2022/01/01 06:45:23;;;;;;;448.17;144.87;;;12.40;99.90;;;;;;5113580;28;20441;-71
2022/01/01 06:47:53;;;;;;;588.90;150.57;;;12.40;99.90;;;;;;5114964;28;21004;-70
2022/01/01 06:50:21;;;;;;;480.97;140.77;;;12.40;99.90;;;;;;5114714;28;20432;-71
2022/01/01 06:52:49;;;;;;;472.57;148.13;;;12.40;99.90;;;;;;5113354;28;20491;-71
2022/01/01 06:55:17;;;;;;;479.87;149.20;;;12.40;99.90;;;;;;5114742;28;20467;-71
2022/01/01 06:57:46;;;;;;;472.53;133.07;;;12.40;99.90;;;;;;5113253;28;20538;-70
2022/01/01 07:00:15;;;;;;;456.43;104.00;;;12.40;99.90;;;;;;5113408;28;20454;-70
2022/01/01 07:02:45;;;;;;;504.57;133.17;;;12.40;99.90;;;;;;5113075;28;20463;-71
2022/01/01 07:05:16;;;;;;;442.90;131.40;;;12.40;99.90;;;;;;5114930;28;20416;-70
2022/01/01 07:07:44;;;;;;;429.97;129.23;;;12.40;99.90;;;;;;5114924;28;20445;-70
2022/01/01 07:10:13;;;;;;;458.10;143.27;;;12.40;99.90;;;;;;5113029;28;20439;-70
2022/01/01 07:12:42;;;;;;;469.50;137.23;;;12.40;99.90;;;;;;5112935;28;20494;-71
2022/01/01 07:15:11;;;;;;;467.90;161.13;;;12.40;99.90;;;;;;5114186;28;20467;-70
2022/01/01 07:17:39;;;;;;;148.63;84.57;;;12.40;99.90;;;;;;5114175;28;20982;-70
2022/01/01 07:20:08;;;;;;;221.63;85.90;;;12.40;99.90;;;;;;5113175;28;20443;-70
2022/01/01 07:22:41;;;;;;;450.53;117.57;;;12.30;99.90;;;;;;5114266;28;20495;-70
2022/01/01 07:25:11;;;;;;;210.83;84.27;;;12.40;99.90;;;;;;5113940;28;20445;-70
2022/01/01 07:27:40;;;;;;;474.20;142.73;;;12.40;99.90;;;;;;5114009;28;20862;-70
2022/01/01 07:30:09;;;;;;;507.47;147.40;;;12.40;99.90;;;;;;5114548;28;20932;-70
2022/01/01 07:32:43;;;;;;;154.23;90.77;;;12.40;99.90;;;;;;5113937;28;20451;-70
2022/01/01 07:35:12;;;;;;;438.43;141.93;;;12.40;99.90;;;;;;5114133;28;20489;-71
2022/01/01 07:37:42;;;;;;;434.63;143.07;;;12.40;99.90;;;;;;5113742;28;20453;-70
2022/01/01 07:40:13;;;;;;;480.73;145.17;;;12.40;99.90;;;;;;5114225;28;20439;-70
2022/01/01 07:42:41;;;;;;;506.10;131.07;;;12.40;99.90;;;;;;5114374;28;20462;-70
2022/01/01 07:45:11;;;;;;;507.40;151.83;;;12.40;99.90;;;;;;5114434;28;20519;-70
2022/01/01 07:47:39;;;;;;;581.47;153.63;;;12.40;99.90;;;;;;5113781;28;20453;-71
2022/01/01 07:50:09;;;;;;;532.30;130.73;;;12.40;99.90;;;;;;5114280;28;20442;-70
2022/01/01 07:52:37;;;;;;;417.93;116.93;;;12.30;99.90;;;;;;5114108;28;20470;-70
2022/01/01 07:55:08;;;;;;;454.27;138.83;;;12.30;99.90;;;;;;5112390;28;20543;-70
2022/01/01 07:57:37;;;;;;;544.53;151.63;;;12.30;99.90;;;;;;5114591;28;20507;-70
2022/01/01 08:00:08;;;;;;;472.37;140.13;;;12.40;99.90;;;;;;5113663;28;20432;-70
2022/01/01 08:02:42;;;;;;;485.33;143.20;;;12.40;99.90;;;;;;5112298;28;20513;-70
2022/01/01 08:05:11;;;;;;;514.27;140.40;;;12.40;99.90;;;;;;5113596;28;20438;-71
2022/01/01 08:07:40;;;;;;;217.83;86.07;;;12.40;99.90;;;;;;5113566;28;20427;-71
2022/01/01 08:10:29;;;;;;;524.83;122.50;;;12.40;99.90;;;;;;5113557;28;20806;-71
2022/01/01 08:12:58;;;;;;;429.63;134.07;;;12.40;99.90;;;;;;5113421;28;20488;-71
2022/01/01 08:15:26;;;;;;;556.23;157.67;;;12.40;99.90;;;;;;5113643;28;20471;-71
2022/01/01 08:17:54;;;;;;;522.40;145.43;;;12.40;99.90;;;;;;5113569;28;20841;-71
2022/01/01 08:20:22;;;;;;;441.80;145.03;;;12.40;99.90;;;;;;5113987;28;20936;-71
2022/01/01 08:22:51;;;;;;;280.33;106.63;;;12.40;99.90;;;;;;5113876;28;20549;-70
2022/01/01 08:25:21;;;;;;;128.57;76.10;;;12.40;99.90;;;;;;5113675;28;20442;-70
2022/01/01 08:27:51;;;;;;;342.83;112.40;;;12.40;99.90;;;;;;5113557;28;20514;-70
2022/01/01 08:30:20;;;;;;;237.50;110.97;;;12.40;99.90;;;;;;5113398;28;20870;-70
2022/01/01 08:32:48;;;;;;;334.73;91.67;;;12.40;99.90;;;;;;5113229;28;20997;-70
2022/01/01 08:35:16;;;;;;;232.67;104.97;;;12.40;99.90;;;;;;5113308;28;20442;-70
2022/01/01 08:37:44;;;;;;;107.27;77.47;;;12.40;99.90;;;;;;5116516;28;20492;-71
2022/01/01 08:40:13;;;;;;;128.63;68.13;;;12.40;99.90;;;;;;5117247;28;20518;-71
2022/01/01 08:42:41;;;;;;;538.00;152.60;;;12.40;99.90;;;;;;5115739;28;20463;-71
2022/01/01 08:45:11;;;;;;;150.27;75.97;;;12.40;99.90;;;;;;5117146;28;20530;-70
2022/01/01 08:47:39;;;;;;;225.33;110.73;;;12.40;99.90;;;;;;5115797;28;20439;-70
2022/01/01 08:50:08;;;;;;;138.87;86.20;;;12.40;99.90;;;;;;5117117;28;20463;-70
2022/01/01 08:52:37;;;;;;;672.57;157.27;;;12.40;99.90;;;;;;5116894;28;20494;-70
2022/01/01 08:55:06;;;;;;;227.43;102.33;;;12.40;99.90;;;;;;5116883;28;20484;-71
2022/01/01 08:57:34;;;;;;;198.47;97.10;;;12.40;99.90;;;;;;5116808;28;20464;-69
2022/01/01 09:00:07;;;;;;;375.10;113.63;;;12.40;99.90;;;;;;5117153;28;20435;-70
2022/01/01 09:02:37;;;;;;;202.87;78.93;;;12.40;99.90;;;;;;5116945;28;20546;-70
2022/01/01 09:05:06;;;;;;;171.00;86.33;;;12.40;99.90;;;;;;5117486;28;20514;-70
2022/01/01 09:07:34;;;;;;;286.20;81.57;;;12.40;99.90;;;;;;5115386;28;20431;-70
2022/01/01 09:10:05;;;;;;;99.80;67.10;;;12.50;99.90;;;;;;5116982;28;20431;-70
2022/01/01 09:12:33;;;;;;;179.57;90.83;;;12.50;99.90;;;;;;5116764;27;20530;-70
2022/01/01 09:15:01;;;;;;;367.50;118.47;;;12.40;99.90;;;;;;5116531;28;20435;-71
2022/01/01 09:17:29;;;;;;;105.87;67.67;;;12.50;99.90;;;;;;5116706;28;20467;-70
2022/01/01 09:19:59;;;;;;;391.13;123.57;;;12.40;99.90;;;;;;5116491;28;20526;-70
2022/01/01 09:22:27;;;;;;;149.60;79.53;;;12.50;99.90;;;;;;5116198;28;20459;-70
2022/01/01 09:24:55;;;;;;;200.70;99.10;;;12.50;99.90;;;;;;5116603;28;20440;-70
2022/01/01 09:27:23;;;;;;;467.47;127.00;;;12.50;99.90;;;;;;5116531;27;20442;-69
2022/01/01 09:29:51;;;;;;;242.40;86.97;;;12.50;99.90;;;;;;5116294;28;20516;-70
2022/01/01 09:32:20;;;;;;;492.57;127.20;;;12.50;99.90;;;;;;5116480;27;20470;-70
2022/01/01 09:34:48;;;;;;;416.53;112.80;;;12.50;99.90;;;;;;5116170;28;21009;-70
2022/01/01 09:37:17;;;;;;;193.00;82.80;;;12.50;99.90;;;;;;5114801;28;20479;-70
2022/01/01 09:39:45;;;;;;;645.80;153.90;;;12.50;99.90;;;;;;5116349;28;20811;-70
2022/01/01 09:42:14;;;;;;;118.00;51.43;;;12.50;99.90;;;;;;5116017;28;20459;-70
2022/01/01 09:44:43;;;;;;;190.63;84.30;;;12.60;99.90;;;;;;5114681;28;20439;-69
2022/01/01 09:47:12;;;;;;;90.57;55.40;;;12.60;99.90;;;;;;5115428;28;20435;-70
2022/01/01 09:49:41;;;;;;;75.87;58.57;;;12.60;99.90;;;;;;5115896;28;20454;-69
2022/01/01 09:52:12;;;;;;;366.93;114.53;;;12.60;99.90;;;;;;5115684;28;20538;-69
2022/01/01 09:54:45;;;;;;;350.70;78.97;;;12.60;99.90;;;;;;5116113;28;20432;-69
2022/01/01 09:57:13;;;;;;;203.53;85.87;;;12.70;99.90;;;;;;5115647;28;20463;-70
2022/01/01 09:59:41;;;;;;;298.43;103.40;;;12.70;99.90;;;;;;5116274;28;20428;-69
2022/01/01 10:02:10;;;;;;;600.77;131.20;;;12.70;99.90;;;;;;5115707;28;20467;-71
2022/01/01 10:04:43;;;;;;;420.43;114.13;;;12.70;99.90;;;;;;5115659;28;20435;-70
2022/01/01 10:07:12;;;;;;;349.70;108.83;;;12.70;99.90;;;;;;5116175;28;20526;-69
2022/01/01 10:09:40;;;;;;;396.87;109.93;;;12.80;99.90;;;;;;5116294;28;20510;-69
2022/01/01 10:12:16;;;;;;;285.20;95.13;;;12.80;99.90;;;;;;5115565;28;20467;-70
2022/01/01 10:14:45;;;;;;;389.03;95.93;;;12.80;99.90;;;;;;5114166;28;20912;-69
2022/01/01 10:17:15;;;;;;;670.43;150.23;;;12.80;99.90;;;;;;5115257;28;20467;-69
2022/01/01 10:19:44;;;;;;;422.03;118.43;;;12.80;99.90;;;;;;5115376;28;20442;-69
2022/01/01 10:22:14;;;;;;;486.63;122.97;;;12.90;99.90;;;;;;5115457;28;20815;-69
2022/01/01 10:27:46;;;;;;;192.70;87.80;;;12.90;99.90;;;;;;5115112;28;20434;-69
2022/01/01 10:30:22;;;;;;;566.40;145.20;;;12.90;99.90;;;;;;5115337;28;20502;-69
2022/01/01 10:33:01;;;;;;;304.60;89.90;;;12.90;99.90;;;;;;5115610;28;20558;-69
2022/01/01 10:35:34;;;;;;;471.47;132.30;;;12.90;99.90;;;;;;5115159;28;20455;-68
2022/01/01 10:38:05;;;;;;;193.27;85.10;;;12.90;99.90;;;;;;5113487;28;20480;-70
2022/01/01 10:40:33;;;;;;;451.53;112.60;;;13.00;99.90;;;;;;5115102;28;20416;-70
2022/01/01 10:43:03;;;;;;;406.27;99.97;;;13.00;99.90;;;;;;5114872;28;20886;-70
2022/01/01 10:45:34;;;;;;;87.80;59.83;;;13.00;99.90;;;;;;5113496;28;20474;-69
2022/01/01 10:48:17;;;;;;;398.40;110.40;;;13.00;99.90;;;;;;5113498;28;20500;-70
2022/01/01 10:50:47;;;;;;;531.77;133.00;;;13.10;99.90;;;;;;5114900;28;20520;-69
2022/01/01 10:53:17;;;;;;;153.90;76.13;;;13.10;99.90;;;;;;5114623;28;20451;-71
2022/01/01 10:55:47;;;;;;;359.90;82.67;;;13.10;99.90;;;;;;5113370;28;20540;-70
2022/01/01 10:58:22;;;;;;;114.57;71.03;;;13.10;99.90;;;;;;5112981;28;20494;-70
2022/01/01 11:00:50;;;;;;;453.57;110.27;;;13.20;99.90;;;;;;5112926;28;20476;-70
2022/01/01 11:03:20;;;;;;;163.20;75.83;;;13.20;99.90;;;;;;5115442;28;20462;-70
2022/01/01 11:05:51;;;;;;;441.83;123.77;;;13.20;99.90;;;;;;5113260;28;20859;-70
2022/01/01 11:08:19;;;;;;;241.07;75.17;;;13.20;99.90;;;;;;5113121;28;20447;-70
2022/01/01 11:10:48;;;;;;;212.73;74.67;;;13.30;99.90;;;;;;5114588;28;20439;-70
2022/01/01 11:13:16;;;;;;;168.47;76.23;;;13.30;99.90;;;;;;5114215;28;20550;-70
2022/01/01 11:15:46;;;;;;;201.50;80.30;;;13.40;99.90;;;;;;5113037;28;20557;-70
2022/01/01 11:18:15;;;;;;;243.30;103.67;;;13.40;99.90;;;;;;5114175;28;20561;-70
2022/01/01 11:20:44;;;;;;;633.40;134.73;;;13.40;99.90;;;;;;5114576;28;20534;-69
2022/01/01 11:23:13;;;;;;;346.07;95.17;;;13.40;99.90;;;;;;5112716;28;20466;-69
2022/01/01 11:25:42;;;;;;;598.80;157.80;;;13.50;99.90;;;;;;5112854;28;20446;-69
2022/01/01 11:28:12;;;;;;;625.73;151.93;;;13.50;99.90;;;;;;5112807;28;20439;-69
2022/01/01 11:30:48;;;;;;;361.10;110.37;;;13.50;99.90;;;;;;5114104;28;20539;-70
2022/01/01 11:33:19;;;;;;;131.57;66.23;;;13.50;99.90;;;;;;5114072;28;20520;-69
2022/01/01 11:35:53;;;;;;;238.93;75.17;;;13.50;99.90;;;;;;5114313;28;20515;-70
2022/01/01 11:38:22;;;;;;;213.10;91.70;;;13.60;99.90;;;;;;5112600;28;20514;-70
2022/01/01 11:40:58;;;;;;;96.03;60.90;;;13.60;99.90;;;;;;5113882;28;20432;-69
2022/01/01 11:43:34;;;;;;;195.10;83.50;;;13.60;99.90;;;;;;5113762;28;20554;-69
2022/01/01 11:46:11;;;;;;;379.77;104.07;;;13.70;99.90;;;;;;5114129;28;20423;-69
2022/01/01 11:48:58;;;;;;;176.17;83.67;;;13.70;99.90;;;;;;5112578;28;20526;-70
2022/01/01 11:51:35;;;;;;;273.87;87.87;;;13.70;99.90;;;;;;5112726;28;20822;-70
2022/01/01 11:54:19;;;;;;;78.33;58.67;;;13.70;99.90;;;;;;5114115;28;20506;-70
2022/01/01 11:56:59;;;;;;;467.37;96.00;;;13.70;99.90;;;;;;5113974;28;20424;-70
2022/01/01 11:59:29;;;;;;;332.37;100.80;;;13.70;99.90;;;;;;5112405;28;20885;-70
2022/01/01 12:02:00;;;;;;;363.87;105.93;;;13.70;99.90;;;;;;5112303;28;20464;-70
2022/01/01 12:04:32;;;;;;;324.07;98.13;;;13.80;99.90;;;;;;5113965;28;20476;-70
2022/01/01 12:07:12;;;;;;;129.93;75.87;;;13.80;99.90;;;;;;5113559;28;20503;-69
2022/01/01 12:09:50;;;;;;;224.73;81.03;;;13.80;99.90;;;;;;5113639;28;20823;-70
2022/01/01 12:12:36;;;;;;;406.07;99.83;;;13.80;99.90;;;;;;5117734;28;20439;-70
2022/01/01 12:15:06;;;;;;;183.10;71.47;;;13.90;99.90;;;;;;5118297;28;20419;-70
2022/01/01 12:17:43;;;;;;;398.90;119.73;;;13.90;99.90;;;;;;5117906;28;20518;-71
2022/01/01 12:20:15;;;;;;;338.50;92.73;;;13.90;99.90;;;;;;5116473;28;20957;-70
2022/01/01 12:22:44;;;;;;;451.40;111.00;;;13.90;99.90;;;;;;5116317;28;20481;-70
2022/01/01 12:25:15;;;;;;;358.47;106.67;;;13.90;99.90;;;;;;5116299;28;20462;-70
2022/01/01 12:27:47;;;;;;;495.93;156.63;;;13.90;99.90;;;;;;5118043;28;20451;-70